Terminal Aerodrome Forecast
Issued by NWS

Home | Current Version | Previous Version | Text Only | Print | Product List | Glossary On
Versions: 1 2 3 4 5 6 7 8 9 10 11 12 13 14 15 16 17
671
FTUS43 KABR 111132
TAFMBG
TAF
KMBG 111132Z 1112/1212 32026G36KT P6SM OVC025
     FM111800 34019G27KT P6SM OVC020
     FM112300 33015G24KT P6SM BKN035
     FM120200 32010KT P6SM BKN035
     FM121100 29008KT P6SM SCT250=

USA.gov is the U.S. government's official web portal to all federal, state and local government web resources and services.